メインページ
METAR-TAF:

METAR-TAF

空港 :

ラハイナ, ハワイ州, アメリカ合衆国

緯度: 21-01N, 経度: 156-38W, 海抜: 40m

現時点の気象観測

当レポートは1時間29分前の03:45(UTC)に作成
南西の風 9kt
気温 27°C
湿度 66%
気圧 1015 hPa
視程: 24.1km
高度3000ftの雲はほとんどない
高度5000ftの雲はほとんどない

METAR: PHJH 200345Z 23009KT 15SM FEW030 FEW050 27/20 A2997 RMK LAST

時間: 19:14 (05:14 UTC)

予報

当レポートは5時間54分前の23:20(UTC)に作成
予報は20日の 00時(UTC)から 20日の 24時(UTC)まで有効
北東の風 10kt
視程: 10km
高度3000ftの雲はほとんどない
高度4000ftの雲は散在している
高度6000ftの雲は散在している
20日の 0600時(UTC)から
変向風 6kt
視程: 10km
高度2500ftの雲は散在している
20日の 2000時(UTC)から
北東の風 9kt
視程: 10km
高度2500ftの雲は散在している
高度4500ftの雲は散在している

TAF: PHJH 192320Z 2000/2024 05010KT P6SM FEW030 SCT040 SCT060 FM200600 VRB06KT P6SM SCT025 FM202000 05009KT P6SM SCT025 SCT045

4,000以上の空港の気象観測と天気予報(METAR報とTAF報)

利用可能な観測所は地図上に黄色い丸と赤い丸で示す。

丸の上にカーソルを重ねると観測所名を参照できる。

次にクリックすると気象観測と天気予報を参照できる。

マップの切り替え:黒色「×」印の緑ボタンをクリックして拡大、「-」印の緑ボタンをクリックして縮小、緑色の三角印をクリックして隣りの地図に切り替え


METAR-TAF: